sensor_id;sensor_type;location;lat;lon;timestamp;temperature;humidity
57030;DHT22;42920;45.306;20.448;2022-07-23T00:01:27;666.30;1843.20
57030;DHT22;42920;45.306;20.448;2022-07-23T00:03:55;665.90;1792.00
57030;DHT22;42920;45.306;20.448;2022-07-23T00:06:22;665.80;1792.00
57030;DHT22;42920;45.306;20.448;2022-07-23T00:08:48;665.60;1792.00
57030;DHT22;42920;45.306;20.448;2022-07-23T00:11:14;665.60;1817.60
57030;DHT22;42920;45.306;20.448;2022-07-23T00:13:43;640.90;1792.00
57030;DHT22;42920;45.306;20.448;2022-07-23T00:16:09;665.60;1817.60
57030;DHT22;42920;45.306;20.448;2022-07-23T00:18:35;665.70;1792.00
57030;DHT22;42920;45.306;20.448;2022-07-23T00:21:01;640.90;1792.00
57030;DHT22;42920;45.306;20.448;2022-07-23T00:23:27;640.90;1792.00
57030;DHT22;42920;45.306;20.448;2022-07-23T00:26:10;640.70;1817.60
57030;DHT22;42920;45.306;20.448;2022-07-23T00:28:38;640.70;1792.00
57030;DHT22;42920;45.306;20.448;2022-07-23T00:31:05;640.70;1792.00
57030;DHT22;42920;45.306;20.448;2022-07-23T00:33:40;640.60;1792.00
57030;DHT22;42920;45.306;20.448;2022-07-23T00:36:07;640.60;1792.00
57030;DHT22;42920;45.306;20.448;2022-07-23T00:38:33;640.60;1766.40
57030;DHT22;42920;45.306;20.448;2022-07-23T00:40:58;640.60;1740.80
57030;DHT22;42920;45.306;20.448;2022-07-23T00:43:24;640.50;1740.80
57030;DHT22;42920;45.306;20.448;2022-07-23T00:45:50;640.40;1766.40
57030;DHT22;42920;45.306;20.448;2022-07-23T00:48:16;640.20;1766.40
57030;DHT22;42920;45.306;20.448;2022-07-23T00:50:43;640.00;1766.40
57030;DHT22;42920;45.306;20.448;2022-07-23T00:53:09;640.10;1740.80
57030;DHT22;42920;45.306;20.448;2022-07-23T00:55:34;640.20;1715.20
57030;DHT22;42920;45.306;20.448;2022-07-23T00:58:01;615.30;1740.80
57030;DHT22;42920;45.306;20.448;2022-07-23T01:00:29;640.10;1740.80
57030;DHT22;42920;45.306;20.448;2022-07-23T01:02:55;640.40;1715.20
57030;DHT22;42920;45.306;20.448;2022-07-23T01:05:20;640.50;1715.20
57030;DHT22;42920;45.306;20.448;2022-07-23T01:07:51;640.60;1715.20
57030;DHT22;42920;45.306;20.448;2022-07-23T01:10:21;640.90;1689.60
57030;DHT22;42920;45.306;20.448;2022-07-23T01:13:07;640.70;1689.60
57030;DHT22;42920;45.306;20.448;2022-07-23T01:15:35;665.60;1715.20
57030;DHT22;42920;45.306;20.448;2022-07-23T01:18:01;640.90;1689.60
57030;DHT22;42920;45.306;20.448;2022-07-23T01:20:27;665.70;1715.20
57030;DHT22;42920;45.306;20.448;2022-07-23T01:22:53;665.80;1689.60
57030;DHT22;42920;45.306;20.448;2022-07-23T01:25:19;665.90;1689.60
57030;DHT22;42920;45.306;20.448;2022-07-23T01:27:52;666.00;1689.60
57030;DHT22;42920;45.306;20.448;2022-07-23T01:30:19;666.00;1689.60
57030;DHT22;42920;45.306;20.448;2022-07-23T01:32:45;666.20;1689.60
57030;DHT22;42920;45.306;20.448;2022-07-23T01:35:11;665.80;1715.20
57030;DHT22;42920;45.306;20.448;2022-07-23T01:37:37;665.70;1740.80
57030;DHT22;42920;45.306;20.448;2022-07-23T01:40:04;665.60;1740.80
57030;DHT22;42920;45.306;20.448;2022-07-23T01:42:30;640.90;1740.80
57030;DHT22;42920;45.306;20.448;2022-07-23T01:44:56;665.60;1766.40
57030;DHT22;42920;45.306;20.448;2022-07-23T01:47:22;665.60;1740.80
57030;DHT22;42920;45.306;20.448;2022-07-23T01:49:51;665.60;1740.80
57030;DHT22;42920;45.306;20.448;2022-07-23T01:52:17;640.70;1740.80
57030;DHT22;42920;45.306;20.448;2022-07-23T01:54:42;640.70;1766.40
57030;DHT22;42920;45.306;20.448;2022-07-23T01:57:09;640.50;1792.00
57030;DHT22;42920;45.306;20.448;2022-07-23T01:59:35;640.50;1792.00
57030;DHT22;42920;45.306;20.448;2022-07-23T02:02:02;640.60;1792.00
57030;DHT22;42920;45.306;20.448;2022-07-23T02:04:29;640.70;1792.00
57030;DHT22;42920;45.306;20.448;2022-07-23T02:06:55;640.70;1792.00
57030;DHT22;42920;45.306;20.448;2022-07-23T02:09:21;640.90;1766.40
57030;DHT22;42920;45.306;20.448;2022-07-23T02:11:48;640.90;1766.40
57030;DHT22;42920;45.306;20.448;2022-07-23T02:14:16;640.60;1817.60
57030;DHT22;42920;45.306;20.448;2022-07-23T02:16:42;640.60;1817.60
57030;DHT22;42920;45.306;20.448;2022-07-23T02:19:08;640.40;1843.20
57030;DHT22;42920;45.306;20.448;2022-07-23T02:21:37;640.30;1868.80
57030;DHT22;42920;45.306;20.448;2022-07-23T02:24:03;640.40;1894.40
57030;DHT22;42920;45.306;20.448;2022-07-23T02:26:29;640.50;1868.80
57030;DHT22;42920;45.306;20.448;2022-07-23T02:28:57;640.50;1868.80
57030;DHT22;42920;45.306;20.448;2022-07-23T02:31:23;640.40;1894.40
57030;DHT22;42920;45.306;20.448;2022-07-23T02:33:49;640.20;1894.40
57030;DHT22;42920;45.306;20.448;2022-07-23T02:36:14;640.20;1920.00
57030;DHT22;42920;45.306;20.448;2022-07-23T02:38:40;640.00;1920.00
57030;DHT22;42920;45.306;20.448;2022-07-23T02:41:06;615.20;1894.40
57030;DHT22;42920;45.306;20.448;2022-07-23T02:43:31;615.00;1945.60
57030;DHT22;42920;45.306;20.448;2022-07-23T02:46:00;615.10;1945.60
57030;DHT22;42920;45.306;20.448;2022-07-23T02:48:26;615.00;1971.20
57030;DHT22;42920;45.306;20.448;2022-07-23T02:50:55;614.90;1971.20
57030;DHT22;42920;45.306;20.448;2022-07-23T02:53:25;614.90;1971.20
57030;DHT22;42920;45.306;20.448;2022-07-23T02:55:51;614.90;1945.60
57030;DHT22;42920;45.306;20.448;2022-07-23T02:58:17;614.80;1971.20
57030;DHT22;42920;45.306;20.448;2022-07-23T03:00:43;615.10;1945.60
57030;DHT22;42920;45.306;20.448;2022-07-23T03:03:12;614.90;1971.20
57030;DHT22;42920;45.306;20.448;2022-07-23T03:05:40;614.90;1971.20
57030;DHT22;42920;45.306;20.448;2022-07-23T03:08:06;614.90;1971.20
57030;DHT22;42920;45.306;20.448;2022-07-23T03:10:32;614.80;1971.20
57030;DHT22;42920;45.306;20.448;2022-07-23T03:12:58;614.80;1971.20
57030;DHT22;42920;45.306;20.448;2022-07-23T03:15:24;614.80;1996.80
57030;DHT22;42920;45.306;20.448;2022-07-23T03:17:50;614.80;1996.80
57030;DHT22;42920;45.306;20.448;2022-07-23T03:20:15;614.90;1996.80
57030;DHT22;42920;45.306;20.448;2022-07-23T03:22:41;614.90;1971.20
57030;DHT22;42920;45.306;20.448;2022-07-23T03:25:08;614.90;1996.80
57030;DHT22;42920;45.306;20.448;2022-07-23T03:27:34;614.80;1996.80
57030;DHT22;42920;45.306;20.448;2022-07-23T03:30:00;614.90;1996.80
57030;DHT22;42920;45.306;20.448;2022-07-23T03:32:26;614.80;2022.40
57030;DHT22;42920;45.306;20.448;2022-07-23T03:34:52;614.90;2022.40
57030;DHT22;42920;45.306;20.448;2022-07-23T03:37:19;614.80;2022.40
57030;DHT22;42920;45.306;20.448;2022-07-23T03:39:44;614.60;2048.00
57030;DHT22;42920;45.306;20.448;2022-07-23T03:42:10;614.80;2022.40
57030;DHT22;42920;45.306;20.448;2022-07-23T03:44:36;614.70;2048.00
57030;DHT22;42920;45.306;20.448;2022-07-23T03:47:03;614.80;2048.00
57030;DHT22;42920;45.306;20.448;2022-07-23T03:49:29;614.80;2048.00
57030;DHT22;42920;45.306;20.448;2022-07-23T03:51:55;614.80;2048.00
57030;DHT22;42920;45.306;20.448;2022-07-23T03:54:21;614.90;2048.00
57030;DHT22;42920;45.306;20.448;2022-07-23T03:56:47;614.90;2073.60
57030;DHT22;42920;45.306;20.448;2022-07-23T03:59:13;615.10;2048.00
57030;DHT22;42920;45.306;20.448;2022-07-23T04:01:38;615.30;2073.60
57030;DHT22;42920;45.306;20.448;2022-07-23T04:04:04;640.10;2150.40
57030;DHT22;42920;45.306;20.448;2022-07-23T04:06:30;640.20;2176.00
57030;DHT22;42920;45.306;20.448;2022-07-23T04:08:56;640.40;2176.00
57030;DHT22;42920;45.306;20.448;2022-07-23T04:11:21;640.40;2176.00
57030;DHT22;42920;45.306;20.448;2022-07-23T04:13:47;640.50;2176.00
57030;DHT22;42920;45.306;20.448;2022-07-23T04:16:13;640.50;2124.80
57030;DHT22;42920;45.306;20.448;2022-07-23T04:18:40;640.50;2124.80
57030;DHT22;42920;45.306;20.448;2022-07-23T04:21:06;640.60;2124.80
57030;DHT22;42920;45.306;20.448;2022-07-23T04:23:32;640.70;2099.20
57030;DHT22;42920;45.306;20.448;2022-07-23T04:25:57;640.70;2099.20
57030;DHT22;42920;45.306;20.448;2022-07-23T04:28:23;640.90;2073.60
57030;DHT22;42920;45.306;20.448;2022-07-23T04:30:49;640.90;2048.00
57030;DHT22;42920;45.306;20.448;2022-07-23T04:33:14;665.60;2073.60
57030;DHT22;42920;45.306;20.448;2022-07-23T04:35:40;665.60;2124.80
57030;DHT22;42920;45.306;20.448;2022-07-23T04:38:06;665.70;2099.20
57030;DHT22;42920;45.306;20.448;2022-07-23T04:40:32;665.70;2099.20
57030;DHT22;42920;45.306;20.448;2022-07-23T04:42:58;665.70;2073.60
57030;DHT22;42920;45.306;20.448;2022-07-23T04:45:24;665.70;2073.60
57030;DHT22;42920;45.306;20.448;2022-07-23T04:47:50;665.70;2073.60
57030;DHT22;42920;45.306;20.448;2022-07-23T04:50:16;665.70;2022.40
57030;DHT22;42920;45.306;20.448;2022-07-23T04:52:47;665.90;1996.80
57030;DHT22;42920;45.306;20.448;2022-07-23T04:55:13;665.90;1971.20
57030;DHT22;42920;45.306;20.448;2022-07-23T04:57:38;666.00;1971.20
57030;DHT22;42920;45.306;20.448;2022-07-23T05:00:06;666.10;1945.60
57030;DHT22;42920;45.306;20.448;2022-07-23T05:02:32;666.20;1945.60
57030;DHT22;42920;45.306;20.448;2022-07-23T05:04:58;666.10;1996.80
57030;DHT22;42920;45.306;20.448;2022-07-23T05:07:24;666.10;1996.80
57030;DHT22;42920;45.306;20.448;2022-07-23T05:09:50;666.20;1971.20
57030;DHT22;42920;45.306;20.448;2022-07-23T05:12:16;666.30;1945.60
57030;DHT22;42920;45.306;20.448;2022-07-23T05:14:42;666.50;1920.00
57030;DHT22;42920;45.306;20.448;2022-07-23T05:17:08;691.20;1920.00
57030;DHT22;42920;45.306;20.448;2022-07-23T05:19:34;691.30;1920.00
57030;DHT22;42920;45.306;20.448;2022-07-23T05:22:00;691.30;1894.40
57030;DHT22;42920;45.306;20.448;2022-07-23T05:24:26;691.30;1920.00
57030;DHT22;42920;45.306;20.448;2022-07-23T05:26:52;691.40;1920.00
57030;DHT22;42920;45.306;20.448;2022-07-23T05:29:17;691.60;1920.00
57030;DHT22;42920;45.306;20.448;2022-07-23T05:31:43;691.50;1868.80
57030;DHT22;42920;45.306;20.448;2022-07-23T05:34:09;691.60;1843.20
57030;DHT22;42920;45.306;20.448;2022-07-23T05:36:35;691.60;1766.40
57030;DHT22;42920;45.306;20.448;2022-07-23T05:39:01;691.70;1766.40
57030;DHT22;42920;45.306;20.448;2022-07-23T05:41:26;691.80;1740.80
57030;DHT22;42920;45.306;20.448;2022-07-23T05:43:52;691.90;1740.80
57030;DHT22;42920;45.306;20.448;2022-07-23T05:46:18;692.10;1715.20
57030;DHT22;42920;45.306;20.448;2022-07-23T05:48:44;692.10;1664.00
57030;DHT22;42920;45.306;20.448;2022-07-23T05:51:11;716.80;1689.60
57030;DHT22;42920;45.306;20.448;2022-07-23T05:53:37;716.90;1689.60
57030;DHT22;42920;45.306;20.448;2022-07-23T05:56:04;716.90;1664.00
57030;DHT22;42920;45.306;20.448;2022-07-23T05:58:29;716.90;1689.60
57030;DHT22;42920;45.306;20.448;2022-07-23T06:00:55;717.10;1664.00
57030;DHT22;42920;45.306;20.448;2022-07-23T06:03:21;717.20;1664.00
57030;DHT22;42920;45.306;20.448;2022-07-23T06:05:47;717.20;1612.80
57030;DHT22;42920;45.306;20.448;2022-07-23T06:08:12;717.40;1612.80
57030;DHT22;42920;45.306;20.448;2022-07-23T06:10:38;717.40;1612.80
57030;DHT22;42920;45.306;20.448;2022-07-23T06:13:04;717.60;1587.20
57030;DHT22;42920;45.306;20.448;2022-07-23T06:15:30;717.70;1587.20
57030;DHT22;42920;45.306;20.448;2022-07-23T06:17:55;717.70;1587.20
57030;DHT22;42920;45.306;20.448;2022-07-23T06:20:21;742.50;1612.80
57030;DHT22;42920;45.306;20.448;2022-07-23T06:22:47;742.60;1612.80
57030;DHT22;42920;45.306;20.448;2022-07-23T06:25:13;742.60;1587.20
57030;DHT22;42920;45.306;20.448;2022-07-23T06:27:38;742.80;1587.20
57030;DHT22;42920;45.306;20.448;2022-07-23T06:30:05;742.80;1561.60
57030;DHT22;42920;45.306;20.448;2022-07-23T06:32:31;742.80;1561.60
57030;DHT22;42920;45.306;20.448;2022-07-23T06:34:57;743.00;1536.00
57030;DHT22;42920;45.306;20.448;2022-07-23T06:37:23;743.10;1510.40
57030;DHT22;42920;45.306;20.448;2022-07-23T06:39:48;743.20;1484.80
57030;DHT22;42920;45.306;20.448;2022-07-23T06:42:14;743.20;1433.60
57030;DHT22;42920;45.306;20.448;2022-07-23T06:44:40;768.00;1408.00
57030;DHT22;42920;45.306;20.448;2022-07-23T06:47:07;768.10;1382.40
57030;DHT22;42920;45.306;20.448;2022-07-23T06:49:33;768.20;1382.40
57030;DHT22;42920;45.306;20.448;2022-07-23T06:51:59;768.30;1382.40
57030;DHT22;42920;45.306;20.448;2022-07-23T06:54:25;768.40;1356.80
57030;DHT22;42920;45.306;20.448;2022-07-23T06:56:50;768.40;1331.20
57030;DHT22;42920;45.306;20.448;2022-07-23T06:59:16;768.60;1356.80
57030;DHT22;42920;45.306;20.448;2022-07-23T07:01:42;768.70;1305.60
57030;DHT22;42920;45.306;20.448;2022-07-23T07:04:08;768.80;1305.60
57030;DHT22;42920;45.306;20.448;2022-07-23T07:06:34;768.90;1331.20
57030;DHT22;42920;45.306;20.448;2022-07-23T07:08:59;793.70;1356.80
57030;DHT22;42920;45.306;20.448;2022-07-23T07:11:25;793.70;1356.80
57030;DHT22;42920;45.306;20.448;2022-07-23T07:13:51;793.90;1356.80
57030;DHT22;42920;45.306;20.448;2022-07-23T07:16:17;794.10;1331.20
57030;DHT22;42920;45.306;20.448;2022-07-23T07:18:43;794.20;1331.20
57030;DHT22;42920;45.306;20.448;2022-07-23T07:21:09;794.30;1280.00
57030;DHT22;42920;45.306;20.448;2022-07-23T07:23:35;794.40;1280.00
57030;DHT22;42920;45.306;20.448;2022-07-23T07:26:00;794.40;1280.00
57030;DHT22;42920;45.306;20.448;2022-07-23T07:28:26;819.20;1305.60
57030;DHT22;42920;45.306;20.448;2022-07-23T07:30:52;819.30;1305.60
57030;DHT22;42920;45.306;20.448;2022-07-23T07:33:18;819.40;1280.00
57030;DHT22;42920;45.306;20.448;2022-07-23T07:35:44;819.40;1280.00
57030;DHT22;42920;45.306;20.448;2022-07-23T07:38:10;819.60;1254.40
57030;DHT22;42920;45.306;20.448;2022-07-23T07:40:36;819.70;1254.40
57030;DHT22;42920;45.306;20.448;2022-07-23T07:43:01;819.70;1228.80
57030;DHT22;42920;45.306;20.448;2022-07-23T07:45:29;819.80;1228.80
57030;DHT22;42920;45.306;20.448;2022-07-23T07:47:54;820.00;1228.80
57030;DHT22;42920;45.306;20.448;2022-07-23T07:50:21;844.80;1254.40
57030;DHT22;42920;45.306;20.448;2022-07-23T07:52:47;844.90;1254.40
57030;DHT22;42920;45.306;20.448;2022-07-23T07:55:13;844.90;1254.40
57030;DHT22;42920;45.306;20.448;2022-07-23T07:57:40;845.00;1254.40
57030;DHT22;42920;45.306;20.448;2022-07-23T08:00:08;845.20;1203.20
57030;DHT22;42920;45.306;20.448;2022-07-23T08:02:41;845.30;1152.00
57030;DHT22;42920;45.306;20.448;2022-07-23T08:05:07;845.40;1152.00
57030;DHT22;42920;45.306;20.448;2022-07-23T08:07:33;845.60;1152.00
57030;DHT22;42920;45.306;20.448;2022-07-23T08:09:59;845.60;1152.00
57030;DHT22;42920;45.306;20.448;2022-07-23T08:12:25;870.40;1152.00
57030;DHT22;42920;45.306;20.448;2022-07-23T08:14:50;870.40;1152.00
57030;DHT22;42920;45.306;20.448;2022-07-23T08:17:16;870.40;1152.00
57030;DHT22;42920;45.306;20.448;2022-07-23T08:19:42;845.70;1126.40
57030;DHT22;42920;45.306;20.448;2022-07-23T08:22:08;870.40;1152.00
57030;DHT22;42920;45.306;20.448;2022-07-23T08:24:33;870.40;1126.40
57030;DHT22;42920;45.306;20.448;2022-07-23T08:26:59;870.50;1152.00
57030;DHT22;42920;45.306;20.448;2022-07-23T08:29:26;870.70;1126.40
57030;DHT22;42920;45.306;20.448;2022-07-23T08:31:52;870.80;1100.80
57030;DHT22;42920;45.306;20.448;2022-07-23T08:34:17;870.80;1075.20
57030;DHT22;42920;45.306;20.448;2022-07-23T08:36:43;870.80;1075.20
57030;DHT22;42920;45.306;20.448;2022-07-23T08:39:09;870.80;1075.20
57030;DHT22;42920;45.306;20.448;2022-07-23T08:41:35;870.80;1049.60
57030;DHT22;42920;45.306;20.448;2022-07-23T08:44:01;870.80;1049.60
57030;DHT22;42920;45.306;20.448;2022-07-23T08:46:27;870.90;1024.00
57030;DHT22;42920;45.306;20.448;2022-07-23T08:48:54;870.90;1024.00
57030;DHT22;42920;45.306;20.448;2022-07-23T08:51:20;870.90;1049.60
57030;DHT22;42920;45.306;20.448;2022-07-23T08:53:46;871.00;1049.60
57030;DHT22;42920;45.306;20.448;2022-07-23T08:56:13;871.10;1024.00
57030;DHT22;42920;45.306;20.448;2022-07-23T08:58:39;871.30;998.40
57030;DHT22;42920;45.306;20.448;2022-07-23T09:01:04;871.30;1024.00
57030;DHT22;42920;45.306;20.448;2022-07-23T09:03:34;871.30;1024.00
57030;DHT22;42920;45.306;20.448;2022-07-23T09:06:00;871.30;1049.60
57030;DHT22;42920;45.306;20.448;2022-07-23T09:08:41;896.00;1049.60
57030;DHT22;42920;45.306;20.448;2022-07-23T09:11:12;896.00;1024.00
57030;DHT22;42920;45.306;20.448;2022-07-23T09:13:41;896.20;1024.00
57030;DHT22;42920;45.306;20.448;2022-07-23T09:16:30;896.30;1024.00
57030;DHT22;42920;45.306;20.448;2022-07-23T09:26:33;896.60;972.80
57030;DHT22;42920;45.306;20.448;2022-07-23T09:34:44;921.70;1024.00
57030;DHT22;42920;45.306;20.448;2022-07-23T09:37:16;921.80;972.80
57030;DHT22;42920;45.306;20.448;2022-07-23T09:39:44;921.80;947.20
57030;DHT22;42920;45.306;20.448;2022-07-23T09:42:14;922.00;921.60
57030;DHT22;42920;45.306;20.448;2022-07-23T09:44:46;922.10;896.00
57030;DHT22;42920;45.306;20.448;2022-07-23T09:47:11;922.40;870.40
57030;DHT22;42920;45.306;20.448;2022-07-23T09:49:37;922.50;870.40
57030;DHT22;42920;45.306;20.448;2022-07-23T09:52:03;947.30;870.40
57030;DHT22;42920;45.306;20.448;2022-07-23T09:54:39;947.50;870.40
57030;DHT22;42920;45.306;20.448;2022-07-23T09:57:10;947.70;896.00
57030;DHT22;42920;45.306;20.448;2022-07-23T09:59:40;947.80;896.00
57030;DHT22;42920;45.306;20.448;2022-07-23T10:02:08;947.90;896.00
57030;DHT22;42920;45.306;20.448;2022-07-23T10:04:35;948.00;870.40
57030;DHT22;42920;45.306;20.448;2022-07-23T10:07:03;948.10;870.40
57030;DHT22;42920;45.306;20.448;2022-07-23T10:09:38;972.80;896.00
57030;DHT22;42920;45.306;20.448;2022-07-23T10:12:08;972.80;870.40
57030;DHT22;42920;45.306;20.448;2022-07-23T10:14:45;973.00;870.40
57030;DHT22;42920;45.306;20.448;2022-07-23T10:17:12;973.10;870.40
57030;DHT22;42920;45.306;20.448;2022-07-23T10:19:38;973.20;844.80
57030;DHT22;42920;45.306;20.448;2022-07-23T10:24:47;973.60;844.80
57030;DHT22;42920;45.306;20.448;2022-07-23T10:30:28;973.70;844.80
57030;DHT22;42920;45.306;20.448;2022-07-23T10:33:02;999.20;819.20
57030;DHT22;42920;45.306;20.448;2022-07-23T10:35:48;1024.40;819.20
57030;DHT22;42920;45.306;20.448;2022-07-23T10:38:21;1024.40;793.60
57030;DHT22;42920;45.306;20.448;2022-07-23T10:40:58;1049.80;793.60
57030;DHT22;42920;45.306;20.448;2022-07-23T10:43:25;1050.10;768.00
57030;DHT22;42920;45.306;20.448;2022-07-23T10:45:51;1049.80;793.60
57030;DHT22;42920;45.306;20.448;2022-07-23T10:48:22;1050.40;768.00
57030;DHT22;42920;45.306;20.448;2022-07-23T10:51:09;1050.50;768.00
57030;DHT22;42920;45.306;20.448;2022-07-23T10:53:56;1075.30;742.40
57030;DHT22;42920;45.306;20.448;2022-07-23T10:59:22;1075.80;742.40
57030;DHT22;42920;45.306;20.448;2022-07-23T11:01:48;1075.90;742.40
57030;DHT22;42920;45.306;20.448;2022-07-23T11:04:14;1075.80;742.40
57030;DHT22;42920;45.306;20.448;2022-07-23T11:09:38;1075.80;742.40
57030;DHT22;42920;45.306;20.448;2022-07-23T11:17:23;1075.20;742.40
57030;DHT22;42920;45.306;20.448;2022-07-23T11:22:38;1075.30;742.40
57030;DHT22;42920;45.306;20.448;2022-07-23T11:25:04;1075.90;742.40
57030;DHT22;42920;45.306;20.448;2022-07-23T11:27:44;1075.70;716.80
57030;DHT22;42920;45.306;20.448;2022-07-23T11:35:39;1075.90;716.80
57030;DHT22;42920;45.306;20.448;2022-07-23T11:38:15;1076.10;691.20
57030;DHT22;42920;45.306;20.448;2022-07-23T11:40:48;1100.90;716.80
57030;DHT22;42920;45.306;20.448;2022-07-23T11:43:15;1101.10;716.80
57030;DHT22;42920;45.306;20.448;2022-07-23T11:45:46;1101.10;691.20
57030;DHT22;42920;45.306;20.448;2022-07-23T11:48:24;1101.10;691.20
57030;DHT22;42920;45.306;20.448;2022-07-23T11:50:51;1101.10;665.60
57030;DHT22;42920;45.306;20.448;2022-07-23T11:53:25;1101.30;665.60
57030;DHT22;42920;45.306;20.448;2022-07-23T11:55:51;1101.40;665.60
57030;DHT22;42920;45.306;20.448;2022-07-23T11:58:17;1101.00;665.60
57030;DHT22;42920;45.306;20.448;2022-07-23T12:00:43;1101.30;665.60
57030;DHT22;42920;45.306;20.448;2022-07-23T12:03:09;1101.60;665.60
57030;DHT22;42920;45.306;20.448;2022-07-23T12:05:36;1101.30;665.60
57030;DHT22;42920;45.306;20.448;2022-07-23T12:08:11;1101.40;691.20
57030;DHT22;42920;45.306;20.448;2022-07-23T12:10:38;1101.70;665.60
57030;DHT22;42920;45.306;20.448;2022-07-23T12:13:12;1126.60;665.60
57030;DHT22;42920;45.306;20.448;2022-07-23T12:15:39;1126.60;665.60
57030;DHT22;42920;45.306;20.448;2022-07-23T12:18:08;1101.60;665.60
57030;DHT22;42920;45.306;20.448;2022-07-23T12:20:43;1101.40;665.60
57030;DHT22;42920;45.306;20.448;2022-07-23T12:23:12;1101.50;665.60
57030;DHT22;42920;45.306;20.448;2022-07-23T12:25:43;1101.60;665.60
57030;DHT22;42920;45.306;20.448;2022-07-23T12:30:46;1101.10;665.60
57030;DHT22;42920;45.306;20.448;2022-07-23T12:33:39;1101.40;640.00
57030;DHT22;42920;45.306;20.448;2022-07-23T12:36:07;1101.70;640.00
57030;DHT22;42920;45.306;20.448;2022-07-23T12:38:43;1101.60;665.60
57030;DHT22;42920;45.306;20.448;2022-07-23T12:41:09;1101.00;691.20
57030;DHT22;42920;45.306;20.448;2022-07-23T12:43:41;1101.50;665.60
57030;DHT22;42920;45.306;20.448;2022-07-23T12:51:25;1075.90;665.60
57030;DHT22;42920;45.306;20.448;2022-07-23T12:53:54;1076.10;665.60
57030;DHT22;42920;45.306;20.448;2022-07-23T12:56:22;1075.90;665.60
57030;DHT22;42920;45.306;20.448;2022-07-23T13:04:14;1075.20;665.60
57030;DHT22;42920;45.306;20.448;2022-07-23T13:06:45;1075.30;691.20
57030;DHT22;42920;45.306;20.448;2022-07-23T13:09:16;1075.40;691.20
57030;DHT22;42920;45.306;20.448;2022-07-23T13:11:44;1075.30;691.20
57030;DHT22;42920;45.306;20.448;2022-07-23T13:14:11;1075.30;691.20
57030;DHT22;42920;45.306;20.448;2022-07-23T13:16:38;1075.30;691.20
57030;DHT22;42920;45.306;20.448;2022-07-23T13:19:04;1075.30;691.20
57030;DHT22;42920;45.306;20.448;2022-07-23T13:21:30;1075.40;691.20
57030;DHT22;42920;45.306;20.448;2022-07-23T13:23:56;1075.30;691.20
57030;DHT22;42920;45.306;20.448;2022-07-23T13:26:22;1075.30;691.20
57030;DHT22;42920;45.306;20.448;2022-07-23T13:28:48;1075.40;691.20
57030;DHT22;42920;45.306;20.448;2022-07-23T13:31:16;1075.40;691.20
57030;DHT22;42920;45.306;20.448;2022-07-23T13:33:42;1075.30;691.20
57030;DHT22;42920;45.306;20.448;2022-07-23T13:36:10;1075.30;691.20
57030;DHT22;42920;45.306;20.448;2022-07-23T13:38:36;1075.30;691.20
57030;DHT22;42920;45.306;20.448;2022-07-23T13:41:02;1075.30;665.60
57030;DHT22;42920;45.306;20.448;2022-07-23T13:43:31;1075.30;640.00
57030;DHT22;42920;45.306;20.448;2022-07-23T13:45:58;1075.20;640.00
57030;DHT22;42920;45.306;20.448;2022-07-23T13:48:24;1075.20;665.60
57030;DHT22;42920;45.306;20.448;2022-07-23T13:50:50;1050.40;665.60
57030;DHT22;42920;45.306;20.448;2022-07-23T13:53:18;1075.20;665.60
57030;DHT22;42920;45.306;20.448;2022-07-23T13:55:44;1050.40;665.60
57030;DHT22;42920;45.306;20.448;2022-07-23T13:58:11;1050.30;691.20
57030;DHT22;42920;45.306;20.448;2022-07-23T14:00:41;1050.30;665.60
57030;DHT22;42920;45.306;20.448;2022-07-23T14:03:07;1050.40;691.20
57030;DHT22;42920;45.306;20.448;2022-07-23T14:05:33;1050.40;691.20
57030;DHT22;42920;45.306;20.448;2022-07-23T14:07:59;1050.40;691.20
57030;DHT22;42920;45.306;20.448;2022-07-23T14:10:25;1075.20;665.60
57030;DHT22;42920;45.306;20.448;2022-07-23T14:12:52;1075.20;665.60
57030;DHT22;42920;45.306;20.448;2022-07-23T14:15:18;1050.40;691.20
57030;DHT22;42920;45.306;20.448;2022-07-23T14:17:45;1050.20;691.20
57030;DHT22;42920;45.306;20.448;2022-07-23T14:20:12;1050.30;691.20
57030;DHT22;42920;45.306;20.448;2022-07-23T14:22:38;1050.40;691.20
57030;DHT22;42920;45.306;20.448;2022-07-23T14:25:05;1050.40;665.60
57030;DHT22;42920;45.306;20.448;2022-07-23T14:27:31;1050.30;691.20
57030;DHT22;42920;45.306;20.448;2022-07-23T14:29:57;1050.30;691.20
57030;DHT22;42920;45.306;20.448;2022-07-23T14:32:23;1049.90;665.60
57030;DHT22;42920;45.306;20.448;2022-07-23T14:34:49;1049.90;716.80
57030;DHT22;42920;45.306;20.448;2022-07-23T14:37:15;1050.00;716.80
57030;DHT22;42920;45.306;20.448;2022-07-23T14:39:42;1050.40;691.20
57030;DHT22;42920;45.306;20.448;2022-07-23T14:42:09;1100.80;691.20
57030;DHT22;42920;45.306;20.448;2022-07-23T14:44:35;1075.90;640.00
57030;DHT22;42920;45.306;20.448;2022-07-23T14:47:02;1101.00;665.60
57030;DHT22;42920;45.306;20.448;2022-07-23T14:49:33;1075.80;665.60
57030;DHT22;42920;45.306;20.448;2022-07-23T14:51:59;1075.70;665.60
57030;DHT22;42920;45.306;20.448;2022-07-23T14:54:27;1075.60;665.60
57030;DHT22;42920;45.306;20.448;2022-07-23T14:56:54;1075.40;665.60
57030;DHT22;42920;45.306;20.448;2022-07-23T14:59:20;1075.30;691.20
57030;DHT22;42920;45.306;20.448;2022-07-23T15:01:46;1050.40;691.20
57030;DHT22;42920;45.306;20.448;2022-07-23T15:04:11;1050.00;691.20
57030;DHT22;42920;45.306;20.448;2022-07-23T15:06:37;1050.10;716.80
57030;DHT22;42920;45.306;20.448;2022-07-23T15:09:04;1050.10;716.80
57030;DHT22;42920;45.306;20.448;2022-07-23T15:11:30;1050.00;691.20
57030;DHT22;42920;45.306;20.448;2022-07-23T15:14:00;1050.00;716.80
57030;DHT22;42920;45.306;20.448;2022-07-23T15:16:26;1050.10;716.80
57030;DHT22;42920;45.306;20.448;2022-07-23T15:18:52;1050.20;716.80
57030;DHT22;42920;45.306;20.448;2022-07-23T15:21:18;1050.10;716.80
57030;DHT22;42920;45.306;20.448;2022-07-23T15:23:44;1050.10;716.80
57030;DHT22;42920;45.306;20.448;2022-07-23T15:26:09;1050.10;716.80
57030;DHT22;42920;45.306;20.448;2022-07-23T15:28:36;1049.90;716.80